sensor_id;sensor_type;location;lat;lon;timestamp;P1;durP1;ratioP1;P2;durP2;ratioP2
68523;SDS011;55524;51.380;13.372;2024-03-06T00:01:27;27.73;;;15.13;;
68523;SDS011;55524;51.380;13.372;2024-03-06T00:03:53;35.78;;;15.32;;
68523;SDS011;55524;51.380;13.372;2024-03-06T00:06:19;28.88;;;14.48;;
68523;SDS011;55524;51.380;13.372;2024-03-06T00:08:55;28.75;;;13.68;;
68523;SDS011;55524;51.380;13.372;2024-03-06T00:11:22;34.33;;;15.48;;
68523;SDS011;55524;51.380;13.372;2024-03-06T00:13:51;30.92;;;15.00;;
68523;SDS011;55524;51.380;13.372;2024-03-06T00:16:17;30.92;;;14.88;;
68523;SDS011;55524;51.380;13.372;2024-03-06T00:19:04;28.08;;;15.68;;
68523;SDS011;55524;51.380;13.372;2024-03-06T00:21:48;33.83;;;15.43;;
68523;SDS011;55524;51.380;13.372;2024-03-06T00:24:15;35.50;;;15.38;;
68523;SDS011;55524;51.380;13.372;2024-03-06T00:26:42;34.65;;;15.20;;
68523;SDS011;55524;51.380;13.372;2024-03-06T00:29:12;34.47;;;15.88;;
68523;SDS011;55524;51.380;13.372;2024-03-06T00:31:43;37.13;;;16.05;;
68523;SDS011;55524;51.380;13.372;2024-03-06T00:34:10;32.22;;;15.90;;
68523;SDS011;55524;51.380;13.372;2024-03-06T00:36:40;33.47;;;16.80;;
68523;SDS011;55524;51.380;13.372;2024-03-06T00:39:08;34.33;;;15.65;;
68523;SDS011;55524;51.380;13.372;2024-03-06T00:41:50;37.30;;;16.35;;
68523;SDS011;55524;51.380;13.372;2024-03-06T00:44:16;32.17;;;16.67;;
68523;SDS011;55524;51.380;13.372;2024-03-06T00:46:42;33.45;;;15.35;;
68523;SDS011;55524;51.380;13.372;2024-03-06T00:49:12;33.17;;;16.17;;
68523;SDS011;55524;51.380;13.372;2024-03-06T00:51:41;35.30;;;16.92;;
68523;SDS011;55524;51.380;13.372;2024-03-06T00:54:13;36.17;;;16.65;;
68523;SDS011;55524;51.380;13.372;2024-03-06T00:56:39;33.30;;;16.08;;
68523;SDS011;55524;51.380;13.372;2024-03-06T00:59:05;36.88;;;16.52;;
68523;SDS011;55524;51.380;13.372;2024-03-06T01:01:35;36.63;;;17.80;;
68523;SDS011;55524;51.380;13.372;2024-03-06T01:04:21;35.13;;;17.33;;
68523;SDS011;55524;51.380;13.372;2024-03-06T01:06:53;35.35;;;17.30;;
68523;SDS011;55524;51.380;13.372;2024-03-06T01:09:20;40.05;;;17.33;;
68523;SDS011;55524;51.380;13.372;2024-03-06T01:11:57;40.30;;;19.40;;
68523;SDS011;55524;51.380;13.372;2024-03-06T01:14:27;44.15;;;18.20;;
68523;SDS011;55524;51.380;13.372;2024-03-06T01:16:53;42.22;;;19.17;;
68523;SDS011;55524;51.380;13.372;2024-03-06T01:19:23;43.97;;;20.83;;
68523;SDS011;55524;51.380;13.372;2024-03-06T01:21:49;38.03;;;18.75;;
68523;SDS011;55524;51.380;13.372;2024-03-06T01:24:24;45.08;;;18.45;;
68523;SDS011;55524;51.380;13.372;2024-03-06T01:26:51;38.40;;;18.00;;
68523;SDS011;55524;51.380;13.372;2024-03-06T01:29:17;41.17;;;19.60;;
68523;SDS011;55524;51.380;13.372;2024-03-06T01:31:53;36.53;;;17.52;;
68523;SDS011;55524;51.380;13.372;2024-03-06T01:34:20;39.00;;;18.52;;
68523;SDS011;55524;51.380;13.372;2024-03-06T01:36:50;41.08;;;18.15;;
68523;SDS011;55524;51.380;13.372;2024-03-06T01:39:19;43.15;;;20.75;;
68523;SDS011;55524;51.380;13.372;2024-03-06T01:41:46;40.45;;;18.70;;
68523;SDS011;55524;51.380;13.372;2024-03-06T01:44:13;41.15;;;19.60;;
68523;SDS011;55524;51.380;13.372;2024-03-06T01:46:40;42.47;;;19.70;;
68523;SDS011;55524;51.380;13.372;2024-03-06T01:49:11;43.92;;;19.40;;
68523;SDS011;55524;51.380;13.372;2024-03-06T01:51:41;59.20;;;23.80;;
68523;SDS011;55524;51.380;13.372;2024-03-06T01:54:20;49.90;;;20.02;;
68523;SDS011;55524;51.380;13.372;2024-03-06T01:56:47;53.17;;;23.25;;
68523;SDS011;55524;51.380;13.372;2024-03-06T01:59:15;52.20;;;21.38;;
68523;SDS011;55524;51.380;13.372;2024-03-06T02:01:46;44.97;;;19.88;;
68523;SDS011;55524;51.380;13.372;2024-03-06T02:04:13;43.20;;;18.45;;
68523;SDS011;55524;51.380;13.372;2024-03-06T02:06:39;38.97;;;18.30;;
68523;SDS011;55524;51.380;13.372;2024-03-06T02:09:09;53.28;;;23.75;;
68523;SDS011;55524;51.380;13.372;2024-03-06T02:11:50;47.25;;;20.67;;
68523;SDS011;55524;51.380;13.372;2024-03-06T02:14:17;49.13;;;20.45;;
68523;SDS011;55524;51.380;13.372;2024-03-06T02:16:43;50.55;;;20.10;;
68523;SDS011;55524;51.380;13.372;2024-03-06T02:19:09;50.15;;;21.40;;
68523;SDS011;55524;51.380;13.372;2024-03-06T02:21:40;54.70;;;20.38;;
68523;SDS011;55524;51.380;13.372;2024-03-06T02:24:06;46.88;;;19.65;;
68523;SDS011;55524;51.380;13.372;2024-03-06T02:26:38;48.40;;;21.50;;
68523;SDS011;55524;51.380;13.372;2024-03-06T02:29:13;44.78;;;18.83;;
68523;SDS011;55524;51.380;13.372;2024-03-06T02:31:48;41.90;;;19.58;;
68523;SDS011;55524;51.380;13.372;2024-03-06T02:34:15;40.42;;;19.27;;
68523;SDS011;55524;51.380;13.372;2024-03-06T02:36:41;43.08;;;18.55;;
68523;SDS011;55524;51.380;13.372;2024-03-06T02:39:10;43.78;;;18.77;;
68523;SDS011;55524;51.380;13.372;2024-03-06T02:41:37;43.25;;;18.60;;
68523;SDS011;55524;51.380;13.372;2024-03-06T02:44:03;52.72;;;23.00;;
68523;SDS011;55524;51.380;13.372;2024-03-06T02:46:29;60.85;;;22.95;;
68523;SDS011;55524;51.380;13.372;2024-03-06T02:48:56;59.28;;;22.65;;
68523;SDS011;55524;51.380;13.372;2024-03-06T02:51:22;43.25;;;18.73;;
68523;SDS011;55524;51.380;13.372;2024-03-06T02:53:51;43.90;;;18.63;;
68523;SDS011;55524;51.380;13.372;2024-03-06T02:56:18;39.03;;;18.20;;
68523;SDS011;55524;51.380;13.372;2024-03-06T02:58:45;43.35;;;20.45;;
68523;SDS011;55524;51.380;13.372;2024-03-06T03:01:23;38.42;;;18.88;;
68523;SDS011;55524;51.380;13.372;2024-03-06T03:03:50;46.20;;;19.67;;
68523;SDS011;55524;51.380;13.372;2024-03-06T03:06:19;54.05;;;21.02;;
68523;SDS011;55524;51.380;13.372;2024-03-06T03:08:45;50.20;;;20.95;;
68523;SDS011;55524;51.380;13.372;2024-03-06T03:11:14;52.05;;;20.42;;
68523;SDS011;55524;51.380;13.372;2024-03-06T03:13:41;49.50;;;20.00;;
68523;SDS011;55524;51.380;13.372;2024-03-06T03:16:17;50.70;;;20.27;;
68523;SDS011;55524;51.380;13.372;2024-03-06T03:18:45;72.65;;;26.67;;
68523;SDS011;55524;51.380;13.372;2024-03-06T03:21:15;55.45;;;20.88;;
68523;SDS011;55524;51.380;13.372;2024-03-06T03:23:41;63.42;;;23.33;;
68523;SDS011;55524;51.380;13.372;2024-03-06T03:26:10;56.78;;;21.73;;
68523;SDS011;55524;51.380;13.372;2024-03-06T03:28:40;57.83;;;22.65;;
68523;SDS011;55524;51.380;13.372;2024-03-06T03:31:09;53.47;;;21.85;;
68523;SDS011;55524;51.380;13.372;2024-03-06T03:33:38;52.88;;;21.08;;
68523;SDS011;55524;51.380;13.372;2024-03-06T03:36:06;49.63;;;19.70;;
68523;SDS011;55524;51.380;13.372;2024-03-06T03:38:37;53.90;;;22.27;;
68523;SDS011;55524;51.380;13.372;2024-03-06T03:41:10;53.50;;;20.15;;
68523;SDS011;55524;51.380;13.372;2024-03-06T03:44:03;59.80;;;23.13;;
68523;SDS011;55524;51.380;13.372;2024-03-06T03:46:35;45.42;;;21.08;;
68523;SDS011;55524;51.380;13.372;2024-03-06T03:49:02;52.63;;;19.92;;
68523;SDS011;55524;51.380;13.372;2024-03-06T03:51:29;52.13;;;18.90;;
68523;SDS011;55524;51.380;13.372;2024-03-06T03:53:55;55.05;;;20.23;;
68523;SDS011;55524;51.380;13.372;2024-03-06T03:56:22;50.80;;;21.27;;
68523;SDS011;55524;51.380;13.372;2024-03-06T03:58:48;49.50;;;20.23;;
68523;SDS011;55524;51.380;13.372;2024-03-06T04:01:14;51.78;;;19.67;;
68523;SDS011;55524;51.380;13.372;2024-03-06T04:03:41;54.10;;;20.48;;
68523;SDS011;55524;51.380;13.372;2024-03-06T04:06:10;53.45;;;21.58;;
68523;SDS011;55524;51.380;13.372;2024-03-06T04:08:37;51.35;;;20.65;;
68523;SDS011;55524;51.380;13.372;2024-03-06T04:11:12;51.72;;;20.20;;
68523;SDS011;55524;51.380;13.372;2024-03-06T04:13:39;61.67;;;21.70;;
68523;SDS011;55524;51.380;13.372;2024-03-06T04:16:17;62.83;;;21.95;;
68523;SDS011;55524;51.380;13.372;2024-03-06T04:18:53;68.05;;;24.20;;
68523;SDS011;55524;51.380;13.372;2024-03-06T04:21:28;68.25;;;22.65;;
68523;SDS011;55524;51.380;13.372;2024-03-06T04:23:55;50.60;;;21.00;;
68523;SDS011;55524;51.380;13.372;2024-03-06T04:26:24;60.78;;;21.50;;
68523;SDS011;55524;51.380;13.372;2024-03-06T04:28:57;57.00;;;22.00;;
68523;SDS011;55524;51.380;13.372;2024-03-06T04:31:24;69.70;;;27.13;;
68523;SDS011;55524;51.380;13.372;2024-03-06T04:34:00;86.60;;;37.30;;
68523;SDS011;55524;51.380;13.372;2024-03-06T04:36:26;60.65;;;25.95;;
68523;SDS011;55524;51.380;13.372;2024-03-06T04:39:16;39.97;;;18.05;;
68523;SDS011;55524;51.380;13.372;2024-03-06T04:41:52;33.42;;;16.25;;
68523;SDS011;55524;51.380;13.372;2024-03-06T04:44:24;40.40;;;18.48;;
68523;SDS011;55524;51.380;13.372;2024-03-06T04:46:58;40.50;;;16.63;;
68523;SDS011;55524;51.380;13.372;2024-03-06T04:49:27;35.35;;;15.80;;
68523;SDS011;55524;51.380;13.372;2024-03-06T04:52:00;38.17;;;18.27;;
68523;SDS011;55524;51.380;13.372;2024-03-06T04:54:26;38.53;;;16.88;;
68523;SDS011;55524;51.380;13.372;2024-03-06T04:56:55;41.47;;;17.13;;
68523;SDS011;55524;51.380;13.372;2024-03-06T04:59:21;38.15;;;18.75;;
68523;SDS011;55524;51.380;13.372;2024-03-06T05:01:51;51.55;;;19.90;;
68523;SDS011;55524;51.380;13.372;2024-03-06T05:04:20;45.92;;;19.88;;
68523;SDS011;55524;51.380;13.372;2024-03-06T05:07:07;47.45;;;19.05;;
68523;SDS011;55524;51.380;13.372;2024-03-06T05:09:34;41.25;;;18.25;;
68523;SDS011;55524;51.380;13.372;2024-03-06T05:12:21;41.70;;;18.42;;
68523;SDS011;55524;51.380;13.372;2024-03-06T05:14:57;43.30;;;19.13;;
68523;SDS011;55524;51.380;13.372;2024-03-06T05:17:23;45.05;;;18.23;;
68523;SDS011;55524;51.380;13.372;2024-03-06T05:20:10;43.47;;;18.50;;
68523;SDS011;55524;51.380;13.372;2024-03-06T05:22:36;49.25;;;20.67;;
68523;SDS011;55524;51.380;13.372;2024-03-06T05:25:03;43.90;;;20.17;;
68523;SDS011;55524;51.380;13.372;2024-03-06T05:27:30;42.40;;;19.27;;
68523;SDS011;55524;51.380;13.372;2024-03-06T05:29:57;40.47;;;17.67;;
68523;SDS011;55524;51.380;13.372;2024-03-06T05:32:33;46.95;;;18.13;;
68523;SDS011;55524;51.380;13.372;2024-03-06T05:34:59;41.58;;;17.40;;
68523;SDS011;55524;51.380;13.372;2024-03-06T05:37:26;40.90;;;17.58;;
68523;SDS011;55524;51.380;13.372;2024-03-06T05:39:54;40.42;;;17.48;;
68523;SDS011;55524;51.380;13.372;2024-03-06T05:42:21;42.80;;;18.23;;
68523;SDS011;55524;51.380;13.372;2024-03-06T05:44:57;40.13;;;18.08;;
68523;SDS011;55524;51.380;13.372;2024-03-06T05:47:31;43.13;;;18.58;;
68523;SDS011;55524;51.380;13.372;2024-03-06T05:50:00;40.05;;;17.58;;
68523;SDS011;55524;51.380;13.372;2024-03-06T05:52:30;41.08;;;17.80;;
68523;SDS011;55524;51.380;13.372;2024-03-06T05:54:59;45.95;;;18.92;;
68523;SDS011;55524;51.380;13.372;2024-03-06T05:57:25;41.30;;;18.75;;
68523;SDS011;55524;51.380;13.372;2024-03-06T06:00:12;43.22;;;17.63;;
68523;SDS011;55524;51.380;13.372;2024-03-06T06:02:39;36.50;;;17.38;;
68523;SDS011;55524;51.380;13.372;2024-03-06T06:05:26;41.70;;;17.42;;
68523;SDS011;55524;51.380;13.372;2024-03-06T06:07:52;45.60;;;17.73;;
68523;SDS011;55524;51.380;13.372;2024-03-06T06:10:21;47.17;;;18.23;;
68523;SDS011;55524;51.380;13.372;2024-03-06T06:12:48;41.85;;;17.92;;
68523;SDS011;55524;51.380;13.372;2024-03-06T06:15:25;39.85;;;17.55;;
68523;SDS011;55524;51.380;13.372;2024-03-06T06:21:03;37.90;;;17.75;;
68523;SDS011;55524;51.380;13.372;2024-03-06T06:23:38;43.10;;;18.35;;
68523;SDS011;55524;51.380;13.372;2024-03-06T06:26:07;43.22;;;17.48;;
68523;SDS011;55524;51.380;13.372;2024-03-06T06:28:35;45.55;;;18.88;;
68523;SDS011;55524;51.380;13.372;2024-03-06T06:31:05;49.72;;;21.83;;
68523;SDS011;55524;51.380;13.372;2024-03-06T06:33:32;48.08;;;22.33;;
68523;SDS011;55524;51.380;13.372;2024-03-06T06:35:58;52.80;;;20.77;;
68523;SDS011;55524;51.380;13.372;2024-03-06T06:38:25;43.17;;;19.80;;
68523;SDS011;55524;51.380;13.372;2024-03-06T06:40:51;44.00;;;18.33;;
68523;SDS011;55524;51.380;13.372;2024-03-06T06:43:17;45.95;;;17.98;;
68523;SDS011;55524;51.380;13.372;2024-03-06T06:45:44;39.30;;;16.83;;
68523;SDS011;55524;51.380;13.372;2024-03-06T06:48:10;43.30;;;17.33;;
68523;SDS011;55524;51.380;13.372;2024-03-06T06:50:37;43.88;;;18.38;;
68523;SDS011;55524;51.380;13.372;2024-03-06T06:53:03;49.53;;;17.77;;
68523;SDS011;55524;51.380;13.372;2024-03-06T06:55:29;54.35;;;19.98;;
68523;SDS011;55524;51.380;13.372;2024-03-06T06:58:03;41.88;;;18.48;;
68523;SDS011;55524;51.380;13.372;2024-03-06T07:00:29;45.78;;;18.77;;
68523;SDS011;55524;51.380;13.372;2024-03-06T07:02:56;44.80;;;18.70;;
68523;SDS011;55524;51.380;13.372;2024-03-06T07:05:25;44.80;;;18.67;;
68523;SDS011;55524;51.380;13.372;2024-03-06T07:07:54;50.00;;;19.42;;
68523;SDS011;55524;51.380;13.372;2024-03-06T07:10:40;53.60;;;19.67;;
68523;SDS011;55524;51.380;13.372;2024-03-06T07:13:13;44.60;;;18.70;;
68523;SDS011;55524;51.380;13.372;2024-03-06T07:15:39;45.88;;;19.10;;
68523;SDS011;55524;51.380;13.372;2024-03-06T07:18:05;49.70;;;19.80;;
68523;SDS011;55524;51.380;13.372;2024-03-06T07:20:31;51.33;;;19.65;;
68523;SDS011;55524;51.380;13.372;2024-03-06T07:22:58;60.72;;;20.48;;
68523;SDS011;55524;51.380;13.372;2024-03-06T07:25:24;49.30;;;19.42;;
68523;SDS011;55524;51.380;13.372;2024-03-06T07:27:53;54.97;;;21.80;;
68523;SDS011;55524;51.380;13.372;2024-03-06T07:30:19;51.55;;;20.60;;
68523;SDS011;55524;51.380;13.372;2024-03-06T07:32:46;50.30;;;20.27;;
68523;SDS011;55524;51.380;13.372;2024-03-06T07:35:31;52.45;;;20.33;;
68523;SDS011;55524;51.380;13.372;2024-03-06T07:37:58;51.22;;;21.70;;
68523;SDS011;55524;51.380;13.372;2024-03-06T07:40:24;55.40;;;21.23;;
68523;SDS011;55524;51.380;13.372;2024-03-06T07:42:50;49.80;;;22.02;;
68523;SDS011;55524;51.380;13.372;2024-03-06T07:45:17;48.47;;;20.75;;
68523;SDS011;55524;51.380;13.372;2024-03-06T07:47:43;48.60;;;19.98;;
68523;SDS011;55524;51.380;13.372;2024-03-06T07:50:10;46.70;;;20.27;;
68523;SDS011;55524;51.380;13.372;2024-03-06T07:53:17;49.65;;;21.27;;
68523;SDS011;55524;51.380;13.372;2024-03-06T07:55:52;44.53;;;19.42;;
68523;SDS011;55524;51.380;13.372;2024-03-06T07:58:19;49.35;;;19.85;;
68523;SDS011;55524;51.380;13.372;2024-03-06T08:00:46;48.85;;;19.77;;
68523;SDS011;55524;51.380;13.372;2024-03-06T08:03:12;47.85;;;21.70;;
68523;SDS011;55524;51.380;13.372;2024-03-06T08:05:39;49.05;;;20.88;;
68523;SDS011;55524;51.380;13.372;2024-03-06T08:08:08;51.83;;;21.90;;
68523;SDS011;55524;51.380;13.372;2024-03-06T08:10:34;51.53;;;22.88;;
68523;SDS011;55524;51.380;13.372;2024-03-06T08:13:10;52.00;;;22.02;;
68523;SDS011;55524;51.380;13.372;2024-03-06T08:15:36;48.00;;;22.77;;
68523;SDS011;55524;51.380;13.372;2024-03-06T08:18:04;64.15;;;22.05;;
68523;SDS011;55524;51.380;13.372;2024-03-06T08:20:33;52.25;;;21.88;;
68523;SDS011;55524;51.380;13.372;2024-03-06T08:22:59;48.72;;;22.05;;
68523;SDS011;55524;51.380;13.372;2024-03-06T08:25:26;52.47;;;22.55;;
68523;SDS011;55524;51.380;13.372;2024-03-06T08:27:58;47.47;;;21.75;;
68523;SDS011;55524;51.380;13.372;2024-03-06T08:30:24;59.03;;;23.17;;
68523;SDS011;55524;51.380;13.372;2024-03-06T08:32:55;54.67;;;23.10;;
68523;SDS011;55524;51.380;13.372;2024-03-06T08:35:24;49.97;;;22.83;;
68523;SDS011;55524;51.380;13.372;2024-03-06T08:37:51;51.08;;;22.00;;
68523;SDS011;55524;51.380;13.372;2024-03-06T08:40:20;47.03;;;23.50;;
68523;SDS011;55524;51.380;13.372;2024-03-06T08:42:47;49.53;;;22.73;;
68523;SDS011;55524;51.380;13.372;2024-03-06T08:45:16;54.80;;;23.55;;
68523;SDS011;55524;51.380;13.372;2024-03-06T08:47:48;53.28;;;24.10;;
68523;SDS011;55524;51.380;13.372;2024-03-06T08:50:15;48.95;;;22.60;;
68523;SDS011;55524;51.380;13.372;2024-03-06T08:52:51;52.90;;;23.45;;
68523;SDS011;55524;51.380;13.372;2024-03-06T08:55:17;53.58;;;23.80;;
68523;SDS011;55524;51.380;13.372;2024-03-06T08:57:49;49.55;;;24.17;;
68523;SDS011;55524;51.380;13.372;2024-03-06T09:00:26;49.53;;;21.98;;
68523;SDS011;55524;51.380;13.372;2024-03-06T09:02:55;50.08;;;22.38;;
68523;SDS011;55524;51.380;13.372;2024-03-06T09:05:42;52.33;;;23.73;;
68523;SDS011;55524;51.380;13.372;2024-03-06T09:08:08;45.40;;;21.67;;
68523;SDS011;55524;51.380;13.372;2024-03-06T09:10:34;50.13;;;21.52;;
68523;SDS011;55524;51.380;13.372;2024-03-06T09:13:06;39.80;;;20.55;;
68523;SDS011;55524;51.380;13.372;2024-03-06T09:15:36;44.38;;;20.70;;
68523;SDS011;55524;51.380;13.372;2024-03-06T09:18:02;45.47;;;22.35;;
68523;SDS011;55524;51.380;13.372;2024-03-06T09:20:29;43.47;;;20.88;;
68523;SDS011;55524;51.380;13.372;2024-03-06T09:23:07;42.78;;;20.75;;
68523;SDS011;55524;51.380;13.372;2024-03-06T09:25:33;46.72;;;20.45;;
68523;SDS011;55524;51.380;13.372;2024-03-06T09:28:02;47.25;;;21.25;;
68523;SDS011;55524;51.380;13.372;2024-03-06T09:30:29;41.03;;;20.15;;
68523;SDS011;55524;51.380;13.372;2024-03-06T09:32:56;46.15;;;21.35;;
68523;SDS011;55524;51.380;13.372;2024-03-06T09:35:42;42.45;;;20.52;;
68523;SDS011;55524;51.380;13.372;2024-03-06T09:38:10;47.35;;;21.80;;
68523;SDS011;55524;51.380;13.372;2024-03-06T09:40:57;41.92;;;20.88;;
68523;SDS011;55524;51.380;13.372;2024-03-06T09:43:23;40.67;;;20.63;;
68523;SDS011;55524;51.380;13.372;2024-03-06T09:46:10;44.55;;;20.83;;
68523;SDS011;55524;51.380;13.372;2024-03-06T09:48:37;47.92;;;21.45;;
68523;SDS011;55524;51.380;13.372;2024-03-06T09:51:11;46.28;;;23.77;;
68523;SDS011;55524;51.380;13.372;2024-03-06T09:53:39;47.30;;;20.88;;
68523;SDS011;55524;51.380;13.372;2024-03-06T09:56:09;41.75;;;19.67;;
68523;SDS011;55524;51.380;13.372;2024-03-06T09:58:35;42.47;;;20.73;;
68523;SDS011;55524;51.380;13.372;2024-03-06T10:01:02;44.78;;;21.55;;
68523;SDS011;55524;51.380;13.372;2024-03-06T10:03:32;49.10;;;21.60;;
68523;SDS011;55524;51.380;13.372;2024-03-06T10:05:59;45.55;;;20.63;;
68523;SDS011;55524;51.380;13.372;2024-03-06T10:08:27;42.45;;;19.42;;
68523;SDS011;55524;51.380;13.372;2024-03-06T10:11:17;45.97;;;20.67;;
68523;SDS011;55524;51.380;13.372;2024-03-06T10:13:44;38.80;;;19.98;;
68523;SDS011;55524;51.380;13.372;2024-03-06T10:16:10;44.08;;;21.67;;
68523;SDS011;55524;51.380;13.372;2024-03-06T10:18:39;38.75;;;19.75;;
68523;SDS011;55524;51.380;13.372;2024-03-06T10:21:05;40.05;;;20.33;;
68523;SDS011;55524;51.380;13.372;2024-03-06T10:23:42;41.30;;;19.08;;
68523;SDS011;55524;51.380;13.372;2024-03-06T10:26:22;38.90;;;19.50;;
68523;SDS011;55524;51.380;13.372;2024-03-06T10:28:50;38.17;;;18.63;;
68523;SDS011;55524;51.380;13.372;2024-03-06T10:31:27;34.35;;;17.65;;
68523;SDS011;55524;51.380;13.372;2024-03-06T10:33:53;40.03;;;18.52;;
68523;SDS011;55524;51.380;13.372;2024-03-06T10:36:19;55.45;;;22.88;;
68523;SDS011;55524;51.380;13.372;2024-03-06T10:38:46;57.95;;;26.05;;
68523;SDS011;55524;51.380;13.372;2024-03-06T10:41:19;50.33;;;21.30;;
68523;SDS011;55524;51.380;13.372;2024-03-06T10:43:57;53.97;;;21.70;;
68523;SDS011;55524;51.380;13.372;2024-03-06T10:46:26;43.92;;;18.45;;
68523;SDS011;55524;51.380;13.372;2024-03-06T10:48:59;39.00;;;18.75;;
68523;SDS011;55524;51.380;13.372;2024-03-06T10:51:30;32.30;;;16.73;;
68523;SDS011;55524;51.380;13.372;2024-03-06T10:54:00;36.13;;;17.80;;
68523;SDS011;55524;51.380;13.372;2024-03-06T10:56:28;30.98;;;15.75;;
68523;SDS011;55524;51.380;13.372;2024-03-06T10:59:04;32.08;;;15.77;;
68523;SDS011;55524;51.380;13.372;2024-03-06T11:01:31;31.92;;;16.42;;
68523;SDS011;55524;51.380;13.372;2024-03-06T11:04:01;29.73;;;15.77;;
68523;SDS011;55524;51.380;13.372;2024-03-06T11:06:28;33.60;;;15.80;;
68523;SDS011;55524;51.380;13.372;2024-03-06T11:08:55;40.50;;;17.48;;
68523;SDS011;55524;51.380;13.372;2024-03-06T11:11:51;37.30;;;16.10;;
68523;SDS011;55524;51.380;13.372;2024-03-06T11:14:24;29.27;;;15.85;;
68523;SDS011;55524;51.380;13.372;2024-03-06T11:28:23;31.63;;;15.70;;
68523;SDS011;55524;51.380;13.372;2024-03-06T11:31:01;30.27;;;15.77;;
68523;SDS011;55524;51.380;13.372;2024-03-06T11:33:38;33.38;;;15.48;;
68523;SDS011;55524;51.380;13.372;2024-03-06T11:36:16;29.17;;;15.25;;
68523;SDS011;55524;51.380;13.372;2024-03-06T11:41:32;32.83;;;17.33;;
68523;SDS011;55524;51.380;13.372;2024-03-06T11:44:01;37.53;;;17.45;;
68523;SDS011;55524;51.380;13.372;2024-03-06T11:46:44;35.20;;;18.45;;
68523;SDS011;55524;51.380;13.372;2024-03-06T11:49:33;35.00;;;16.85;;
68523;SDS011;55524;51.380;13.372;2024-03-06T11:52:07;33.08;;;16.13;;
68523;SDS011;55524;51.380;13.372;2024-03-06T11:54:35;30.85;;;15.23;;
68523;SDS011;55524;51.380;13.372;2024-03-06T11:57:04;30.02;;;14.90;;
68523;SDS011;55524;51.380;13.372;2024-03-06T11:59:36;35.13;;;14.98;;
68523;SDS011;55524;51.380;13.372;2024-03-06T12:02:05;30.50;;;14.13;;
68523;SDS011;55524;51.380;13.372;2024-03-06T12:04:32;33.97;;;16.58;;
68523;SDS011;55524;51.380;13.372;2024-03-06T12:07:03;32.33;;;15.35;;
68523;SDS011;55524;51.380;13.372;2024-03-06T12:09:34;32.85;;;15.90;;
68523;SDS011;55524;51.380;13.372;2024-03-06T12:12:01;31.83;;;16.02;;
68523;SDS011;55524;51.380;13.372;2024-03-06T12:14:34;26.38;;;15.05;;
68523;SDS011;55524;51.380;13.372;2024-03-06T12:17:01;26.30;;;14.52;;
68523;SDS011;55524;51.380;13.372;2024-03-06T12:19:33;22.23;;;12.55;;
68523;SDS011;55524;51.380;13.372;2024-03-06T12:22:24;25.48;;;13.77;;
68523;SDS011;55524;51.380;13.372;2024-03-06T12:25:08;20.45;;;12.43;;
68523;SDS011;55524;51.380;13.372;2024-03-06T12:27:35;27.92;;;13.27;;
68523;SDS011;55524;51.380;13.372;2024-03-06T12:30:22;27.77;;;14.65;;
68523;SDS011;55524;51.380;13.372;2024-03-06T12:33:09;24.30;;;13.70;;
68523;SDS011;55524;51.380;13.372;2024-03-06T12:35:41;26.67;;;13.93;;
68523;SDS011;55524;51.380;13.372;2024-03-06T12:38:12;24.42;;;13.55;;
68523;SDS011;55524;51.380;13.372;2024-03-06T12:40:42;25.10;;;13.07;;
68523;SDS011;55524;51.380;13.372;2024-03-06T12:43:10;22.83;;;11.70;;
68523;SDS011;55524;51.380;13.372;2024-03-06T12:45:36;19.10;;;10.10;;
68523;SDS011;55524;51.380;13.372;2024-03-06T12:48:11;18.60;;;10.20;;
68523;SDS011;55524;51.380;13.372;2024-03-06T12:51:10;23.45;;;10.40;;
68523;SDS011;55524;51.380;13.372;2024-03-06T12:53:49;23.70;;;11.55;;
68523;SDS011;55524;51.380;13.372;2024-03-06T12:56:16;20.27;;;11.25;;
68523;SDS011;55524;51.380;13.372;2024-03-06T12:58:43;16.75;;;9.85;;
68523;SDS011;55524;51.380;13.372;2024-03-06T13:01:09;17.10;;;10.20;;
68523;SDS011;55524;51.380;13.372;2024-03-06T13:03:38;23.08;;;11.45;;
68523;SDS011;55524;51.380;13.372;2024-03-06T13:06:05;17.70;;;10.57;;
68523;SDS011;55524;51.380;13.372;2024-03-06T13:08:31;19.05;;;10.07;;
68523;SDS011;55524;51.380;13.372;2024-03-06T13:11:18;17.55;;;9.82;;
68523;SDS011;55524;51.380;13.372;2024-03-06T13:13:49;18.65;;;10.20;;
68523;SDS011;55524;51.380;13.372;2024-03-06T13:16:46;17.70;;;10.32;;
68523;SDS011;55524;51.380;13.372;2024-03-06T13:19:12;17.27;;;10.30;;
68523;SDS011;55524;51.380;13.372;2024-03-06T13:21:38;20.52;;;10.40;;
68523;SDS011;55524;51.380;13.372;2024-03-06T13:24:05;21.63;;;10.02;;
68523;SDS011;55524;51.380;13.372;2024-03-06T13:26:51;16.55;;;10.13;;
68523;SDS011;55524;51.380;13.372;2024-03-06T13:29:17;15.18;;;9.55;;
68523;SDS011;55524;51.380;13.372;2024-03-06T13:32:05;15.25;;;9.18;;
68523;SDS011;55524;51.380;13.372;2024-03-06T13:34:35;19.58;;;9.02;;
68523;SDS011;55524;51.380;13.372;2024-03-06T13:37:01;12.68;;;8.18;;
68523;SDS011;55524;51.380;13.372;2024-03-06T13:39:27;19.40;;;8.13;;
68523;SDS011;55524;51.380;13.372;2024-03-06T13:42:14;17.15;;;8.80;;
68523;SDS011;55524;51.380;13.372;2024-03-06T13:44:40;15.68;;;8.27;;
68523;SDS011;55524;51.380;13.372;2024-03-06T13:47:06;13.93;;;8.48;;
68523;SDS011;55524;51.380;13.372;2024-03-06T13:49:57;13.05;;;8.00;;
68523;SDS011;55524;51.380;13.372;2024-03-06T13:52:33;13.45;;;8.10;;
68523;SDS011;55524;51.380;13.372;2024-03-06T13:55:00;14.93;;;7.50;;
68523;SDS011;55524;51.380;13.372;2024-03-06T13:57:47;12.68;;;6.68;;
68523;SDS011;55524;51.380;13.372;2024-03-06T14:00:14;11.85;;;7.80;;
68523;SDS011;55524;51.380;13.372;2024-03-06T14:02:50;12.48;;;7.30;;
68523;SDS011;55524;51.380;13.372;2024-03-06T14:05:16;20.15;;;7.43;;
68523;SDS011;55524;51.380;13.372;2024-03-06T14:07:44;13.80;;;8.95;;
68523;SDS011;55524;51.380;13.372;2024-03-06T14:10:11;13.48;;;8.23;;
68523;SDS011;55524;51.380;13.372;2024-03-06T14:12:38;12.55;;;7.97;;
68523;SDS011;55524;51.380;13.372;2024-03-06T14:15:23;13.80;;;8.10;;
68523;SDS011;55524;51.380;13.372;2024-03-06T14:18:01;11.75;;;7.78;;
68523;SDS011;55524;51.380;13.372;2024-03-06T14:20:34;11.40;;;8.00;;
68523;SDS011;55524;51.380;13.372;2024-03-06T14:23:21;15.85;;;8.18;;
68523;SDS011;55524;51.380;13.372;2024-03-06T14:25:47;14.15;;;7.18;;
68523;SDS011;55524;51.380;13.372;2024-03-06T14:28:13;10.38;;;7.28;;
68523;SDS011;55524;51.380;13.372;2024-03-06T14:31:00;15.38;;;7.88;;
68523;SDS011;55524;51.380;13.372;2024-03-06T14:33:57;12.48;;;7.72;;
68523;SDS011;55524;51.380;13.372;2024-03-06T14:36:22;11.00;;;6.68;;
68523;SDS011;55524;51.380;13.372;2024-03-06T14:39:00;12.23;;;6.88;;
68523;SDS011;55524;51.380;13.372;2024-03-06T14:41:29;11.50;;;7.00;;
68523;SDS011;55524;51.380;13.372;2024-03-06T14:43:59;10.07;;;6.35;;
68523;SDS011;55524;51.380;13.372;2024-03-06T14:46:46;12.35;;;5.95;;
68523;SDS011;55524;51.380;13.372;2024-03-06T14:49:13;11.80;;;6.78;;
68523;SDS011;55524;51.380;13.372;2024-03-06T14:51:42;7.50;;;5.38;;